Time,TemperatureF,DewpointF,PressureIn,WindDirection,WindDirectionDegrees,WindSpeedMPH,WindSpeedGustMPH,Humidity,HourlyPrecipIn,Conditions,Clouds,dailyrainin,SoftwareType,DateUTC
2013-05-07 00:09:00,59.1,45.0,30.05,NNW,333,0.0,-999.0,61,-99.99,,,0.00,weatherlink.com 1.10,2013-05-07 04:09:00,
2013-05-07 00:24:00,59.7,46.0,30.06,NNW,333,0.0,-999.0,62,-99.99,,,0.00,weatherlink.com 1.10,2013-05-07 04:24:00,
2013-05-07 00:39:00,59.8,47.0,30.06,NNW,333,0.0,-999.0,64,-99.99,,,0.00,weatherlink.com 1.10,2013-05-07 04:39:00,
2013-05-07 00:54:00,60.1,48.0,30.06,NNW,333,0.0,-999.0,65,-99.99,,,0.00,weatherlink.com 1.10,2013-05-07 04:54:00,
2013-05-07 01:09:00,60.0,49.0,30.06,NNW,333,0.0,-999.0,67,-99.99,,,0.00,weatherlink.com 1.10,2013-05-07 05:09:00,
2013-05-07 01:24:00,60.3,49.0,30.06,NNW,333,0.0,-999.0,67,-99.99,,,0.00,weatherlink.com 1.10,2013-05-07 05:24:00,
2013-05-07 01:39:00,60.7,50.0,30.06,NNW,333,0.0,-999.0,67,-99.99,,,0.00,weatherlink.com 1.10,2013-05-07 05:39:00,
2013-05-07 01:54:00,60.3,50.0,30.06,NNW,333,0.0,-999.0,68,-99.99,,,0.00,weatherlink.com 1.10,2013-05-07 05:54:00,
2013-05-07 02:09:00,59.9,50.0,30.06,NNW,333,0.0,-999.0,69,-99.99,,,0.00,weatherlink.com 1.10,2013-05-07 06:09:00,
2013-05-07 02:24:00,59.5,50.0,30.05,NNW,333,0.0,-999.0,70,-99.99,,,0.00,weatherlink.com 1.10,2013-05-07 06:24:00,
2013-05-07 02:39:00,59.1,50.0,30.05,NNW,333,0.0,-999.0,71,-99.99,,,0.00,weatherlink.com 1.10,2013-05-07 06:39:00,
2013-05-07 02:54:00,58.7,50.0,30.05,NNW,333,0.0,-999.0,72,-99.99,,,0.00,weatherlink.com 1.10,2013-05-07 06:54:00,
2013-05-07 03:09:00,58.9,50.0,30.06,NNW,333,0.0,-999.0,72,-99.99,,,0.00,weatherlink.com 1.10,2013-05-07 07:09:00,
2013-05-07 03:24:00,58.2,50.0,30.06,NNW,333,0.0,-999.0,73,-99.99,,,0.00,weatherlink.com 1.10,2013-05-07 07:24:00,
2013-05-07 03:39:00,57.3,49.0,30.06,NNW,333,0.0,-999.0,75,-99.99,,,0.00,weatherlink.com 1.10,2013-05-07 07:39:00,
2013-05-07 03:54:00,57.1,50.0,30.06,NNW,333,0.0,-999.0,76,-99.99,,,0.00,weatherlink.com 1.10,2013-05-07 07:54:00,
2013-05-07 04:09:00,56.6,49.0,30.07,NNW,333,0.0,-999.0,77,-99.99,,,0.00,weatherlink.com 1.10,2013-05-07 08:09:00,
2013-05-07 04:36:00,55.9,50.0,30.07,NNW,333,0.0,-999.0,79,-99.99,,,0.00,weatherlink.com 1.10,2013-05-07 08:36:00,
2013-05-07 04:55:00,55.3,49.0,30.07,NNW,333,0.0,-999.0,80,-99.99,,,0.00,weatherlink.com 1.10,2013-05-07 08:55:00,
2013-05-07 05:10:00,54.9,49.0,30.07,NNW,333,0.0,-999.0,81,-99.99,,,0.00,weatherlink.com 1.10,2013-05-07 09:10:00,
2013-05-07 05:25:00,54.6,49.0,30.07,NNW,333,0.0,-999.0,82,-99.99,,,0.00,weatherlink.com 1.10,2013-05-07 09:25:00,
2013-05-07 05:40:00,54.4,49.0,30.07,NNW,333,0.0,-999.0,83,-99.99,,,0.00,weatherlink.com 1.10,2013-05-07 09:40:00,
2013-05-07 05:55:00,54.1,49.0,30.07,NNW,333,0.0,-999.0,84,-99.99,,,0.00,weatherlink.com 1.10,2013-05-07 09:55:00,
2013-05-07 06:10:00,54.1,50.0,30.08,NNW,333,0.0,-999.0,85,-99.99,,,0.00,weatherlink.com 1.10,2013-05-07 10:10:00,
2013-05-07 06:25:00,54.3,50.0,30.08,NNW,333,0.0,-999.0,84,-99.99,,,0.00,weatherlink.com 1.10,2013-05-07 10:25:00,
2013-05-07 06:40:00,54.6,50.0,30.09,NNW,333,0.0,-999.0,85,-99.99,,,0.00,weatherlink.com 1.10,2013-05-07 10:40:00,
2013-05-07 06:55:00,54.9,50.0,30.09,NNW,333,0.0,-999.0,84,-99.99,,,0.00,weatherlink.com 1.10,2013-05-07 10:55:00,
2013-05-07 07:10:00,55.7,51.0,30.10,NNW,333,0.0,-999.0,84,-99.99,,,0.00,weatherlink.com 1.10,2013-05-07 11:10:00,
2013-05-07 07:25:00,57.5,51.0,30.10,NNW,333,0.0,-999.0,80,-99.99,,,0.00,weatherlink.com 1.10,2013-05-07 11:25:00,
2013-05-07 07:40:00,58.6,51.0,30.11,NNW,333,0.0,-999.0,77,-99.99,,,0.00,weatherlink.com 1.10,2013-05-07 11:40:00,
2013-05-07 07:55:00,59.5,52.0,30.11,NNW,333,0.0,-999.0,76,-99.99,,,0.00,weatherlink.com 1.10,2013-05-07 11:55:00,
2013-05-07 08:10:00,60.3,52.0,30.11,NNW,333,1.0,-999.0,74,-99.99,,,0.00,weatherlink.com 1.10,2013-05-07 12:10:00,
2013-05-07 08:25:00,61.4,53.0,30.11,NNW,333,0.0,-999.0,73,-99.99,,,0.00,weatherlink.com 1.10,2013-05-07 12:25:00,
2013-05-07 08:40:00,62.5,53.0,30.11,NNW,333,2.0,-999.0,71,-99.99,,,0.00,weatherlink.com 1.10,2013-05-07 12:40:00,
2013-05-07 08:55:00,64.1,53.0,30.11,NW,307,0.0,-999.0,68,-99.99,,,0.00,weatherlink.com 1.10,2013-05-07 12:55:00,
2013-05-07 09:10:00,65.6,53.0,30.11,WNW,288,0.0,-999.0,65,-99.99,,,0.00,weatherlink.com 1.10,2013-05-07 13:10:00,
2013-05-07 09:25:00,66.7,54.0,30.12,WNW,285,0.0,-999.0,63,-99.99,,,0.00,weatherlink.com 1.10,2013-05-07 13:25:00,
2013-05-07 09:40:00,68.1,54.0,30.12,WNW,285,0.0,-999.0,61,-99.99,,,0.00,weatherlink.com 1.10,2013-05-07 13:40:00,
2013-05-07 09:55:00,68.9,53.0,30.12,SSW,207,1.0,-999.0,58,-99.99,,,0.00,weatherlink.com 1.10,2013-05-07 13:55:00,
2013-05-07 10:10:00,68.8,53.0,30.11,SSW,208,0.0,-999.0,58,-99.99,,,0.00,weatherlink.com 1.10,2013-05-07 14:10:00,
2013-05-07 10:25:00,69.4,53.0,30.12,SSW,208,0.0,-999.0,56,-99.99,,,0.00,weatherlink.com 1.10,2013-05-07 14:25:00,
2013-05-07 10:40:00,68.8,53.0,30.11,SSW,209,0.0,-999.0,58,-99.99,,,0.00,weatherlink.com 1.10,2013-05-07 14:40:00,
2013-05-07 10:55:00,70.1,53.0,30.11,SSW,209,0.0,-999.0,54,-99.99,,,0.00,weatherlink.com 1.10,2013-05-07 14:55:00,
2013-05-07 11:11:00,71.1,53.0,30.11,SSW,192,1.0,-999.0,53,-99.99,,,0.00,weatherlink.com 1.10,2013-05-07 15:11:00,
2013-05-07 11:26:00,72.2,52.0,30.10,SSW,192,4.0,-999.0,50,-99.99,,,0.00,weatherlink.com 1.10,2013-05-07 15:26:00,
2013-05-07 11:41:00,73.4,52.0,30.10,SSW,205,0.0,-999.0,48,-99.99,,,0.00,weatherlink.com 1.10,2013-05-07 15:41:00,
2013-05-07 11:56:00,74.6,53.0,30.10,South,173,0.0,-999.0,47,-99.99,,,0.00,weatherlink.com 1.10,2013-05-07 15:56:00,
2013-05-07 12:11:00,74.8,53.0,30.09,SSW,192,0.0,-999.0,46,-99.99,,,0.00,weatherlink.com 1.10,2013-05-07 16:11:00,
2013-05-07 12:26:00,77.1,53.0,30.08,SSW,192,2.0,-999.0,43,-99.99,,,0.00,weatherlink.com 1.10,2013-05-07 16:26:00,
2013-05-07 12:41:00,77.4,52.0,30.08,East,87,0.0,-999.0,42,-99.99,,,0.00,weatherlink.com 1.10,2013-05-07 16:41:00,
2013-05-07 12:56:00,77.1,53.0,30.07,NE,55,0.0,-999.0,44,-99.99,,,0.00,weatherlink.com 1.10,2013-05-07 16:56:00,
2013-05-07 13:11:00,77.2,54.0,30.07,NW,315,4.0,-999.0,44,-99.99,,,0.00,weatherlink.com 1.10,2013-05-07 17:11:00,
2013-05-07 13:26:00,76.0,53.0,30.07,NW,323,1.0,-999.0,45,-99.99,,,0.00,weatherlink.com 1.10,2013-05-07 17:26:00,
2013-05-07 13:41:00,75.0,53.0,30.07,NNW,338,6.0,-999.0,47,-99.99,,,0.00,weatherlink.com 1.10,2013-05-07 17:41:00,
2013-05-07 13:56:00,76.5,54.0,30.06,NW,308,5.0,-999.0,45,-99.99,,,0.00,weatherlink.com 1.10,2013-05-07 17:56:00,
2013-05-07 14:11:00,76.2,54.0,30.06,North,355,3.0,-999.0,46,-99.99,,,0.00,weatherlink.com 1.10,2013-05-07 18:11:00,
2013-05-07 14:26:00,75.6,54.0,30.05,NW,311,2.0,-999.0,47,-99.99,,,0.00,weatherlink.com 1.10,2013-05-07 18:26:00,
2013-05-07 14:41:00,74.8,54.0,30.05,WSW,238,0.0,-999.0,49,-99.99,,,0.00,weatherlink.com 1.10,2013-05-07 18:41:00,
2013-05-07 14:56:00,75.4,54.0,30.04,WNW,296,0.0,-999.0,47,-99.99,,,0.00,weatherlink.com 1.10,2013-05-07 18:56:00,
2013-05-07 15:11:00,74.8,54.0,30.04,WNW,297,1.0,-999.0,48,-99.99,,,0.00,weatherlink.com 1.10,2013-05-07 19:11:00,
2013-05-07 15:26:00,74.3,54.0,30.04,WNW,296,1.0,-999.0,49,-99.99,,,0.00,weatherlink.com 1.10,2013-05-07 19:26:00,
2013-05-07 15:41:00,74.6,54.0,30.03,WNW,282,1.0,-999.0,48,-99.99,,,0.00,weatherlink.com 1.10,2013-05-07 19:41:00,
2013-05-07 15:56:00,74.4,54.0,30.02,NW,315,2.0,-999.0,49,-99.99,,,0.00,weatherlink.com 1.10,2013-05-07 19:56:00,
2013-05-07 16:11:00,75.4,54.0,30.02,NW,305,2.0,-999.0,47,-99.99,,,0.00,weatherlink.com 1.10,2013-05-07 20:11:00,
2013-05-07 16:26:00,74.9,54.0,30.02,NW,317,5.0,-999.0,48,-99.99,,,0.00,weatherlink.com 1.10,2013-05-07 20:26:00,
2013-05-07 16:41:00,74.3,53.0,30.01,North,355,5.0,-999.0,48,-99.99,,,0.00,weatherlink.com 1.10,2013-05-07 20:41:00,
2013-05-07 16:56:00,75.5,54.0,30.01,NW,304,0.0,-999.0,47,-99.99,,,0.00,weatherlink.com 1.10,2013-05-07 20:56:00,
2013-05-07 17:42:00,74.6,54.0,30.00,West,260,1.0,-999.0,48,-99.99,,,0.00,weatherlink.com 1.10,2013-05-07 21:42:00,
2013-05-07 17:57:00,74.7,53.0,30.00,NW,314,1.0,-999.0,47,-99.99,,,0.00,weatherlink.com 1.10,2013-05-07 21:57:00,
2013-05-07 18:12:00,73.8,53.0,30.00,NNW,337,2.0,-999.0,48,-99.99,,,0.00,weatherlink.com 1.10,2013-05-07 22:12:00,
2013-05-07 18:27:00,72.8,53.0,30.01,NNE,29,3.0,-999.0,50,-99.99,,,0.00,weatherlink.com 1.10,2013-05-07 22:27:00,
2013-05-07 18:42:00,72.2,53.0,30.01,WNW,291,5.0,-999.0,51,-99.99,,,0.00,weatherlink.com 1.10,2013-05-07 22:42:00,
2013-05-07 18:57:00,71.7,52.0,30.01,NNW,339,2.0,-999.0,51,-99.99,,,0.00,weatherlink.com 1.10,2013-05-07 22:57:00,
2013-05-07 19:12:00,71.5,53.0,30.01,NNW,346,0.0,-999.0,52,-99.99,,,0.00,weatherlink.com 1.10,2013-05-07 23:12:00,
2013-05-07 19:27:00,70.9,53.0,30.01,NNW,344,0.0,-999.0,53,-99.99,,,0.00,weatherlink.com 1.10,2013-05-07 23:27:00,
2013-05-07 19:42:00,70.3,53.0,30.01,NNW,344,0.0,-999.0,54,-99.99,,,0.00,weatherlink.com 1.10,2013-05-07 23:42:00,
2013-05-07 19:57:00,69.3,52.0,30.01,NNW,344,0.0,-999.0,55,-99.99,,,0.00,weatherlink.com 1.10,2013-05-07 23:57:00,
2013-05-07 20:12:00,68.3,52.0,30.02,NNW,344,0.0,-999.0,57,-99.99,,,0.00,weatherlink.com 1.10,2013-05-08 00:12:00,
2013-05-07 20:27:00,67.2,53.0,30.02,NNW,344,0.0,-999.0,60,-99.99,,,0.00,weatherlink.com 1.10,2013-05-08 00:27:00,
2013-05-07 20:42:00,65.7,52.0,30.02,NNW,344,0.0,-999.0,62,-99.99,,,0.00,weatherlink.com 1.10,2013-05-08 00:42:00,
2013-05-07 20:57:00,64.6,52.0,30.02,NNW,344,0.0,-999.0,65,-99.99,,,0.00,weatherlink.com 1.10,2013-05-08 00:57:00,
2013-05-07 21:12:00,63.9,52.0,30.02,NNW,344,0.0,-999.0,65,-99.99,,,0.00,weatherlink.com 1.10,2013-05-08 01:12:00,
2013-05-07 21:27:00,63.4,51.0,30.03,NNW,344,0.0,-999.0,65,-99.99,,,0.00,weatherlink.com 1.10,2013-05-08 01:27:00,
2013-05-07 21:42:00,62.9,52.0,30.03,NNW,344,0.0,-999.0,67,-99.99,,,0.00,weatherlink.com 1.10,2013-05-08 01:42:00,
2013-05-07 21:57:00,62.6,51.0,30.03,NNW,344,0.0,-999.0,67,-99.99,,,0.00,weatherlink.com 1.10,2013-05-08 01:57:00,
2013-05-07 22:12:00,62.2,51.0,30.04,NNW,344,0.0,-999.0,67,-99.99,,,0.00,weatherlink.com 1.10,2013-05-08 02:12:00,
2013-05-07 22:27:00,61.7,51.0,30.03,NNW,344,0.0,-999.0,68,-99.99,,,0.00,weatherlink.com 1.10,2013-05-08 02:27:00,
2013-05-07 22:42:00,61.4,51.0,30.03,NNW,344,0.0,-999.0,69,-99.99,,,0.00,weatherlink.com 1.10,2013-05-08 02:42:00,
2013-05-07 22:57:00,60.9,51.0,30.03,NNW,344,0.0,-999.0,70,-99.99,,,0.00,weatherlink.com 1.10,2013-05-08 02:57:00,
2013-05-07 23:12:00,60.7,51.0,30.03,NNW,344,0.0,-999.0,70,-99.99,,,0.00,weatherlink.com 1.10,2013-05-08 03:12:00,
2013-05-07 23:27:00,60.4,51.0,30.03,NNW,344,0.0,-999.0,71,-99.99,,,0.00,weatherlink.com 1.10,2013-05-08 03:27:00,
2013-05-07 23:42:00,60.1,51.0,30.04,NNW,344,0.0,-999.0,72,-99.99,,,0.00,weatherlink.com 1.10,2013-05-08 03:42:00,
2013-05-07 23:57:00,59.9,51.0,30.04,NNW,344,0.0,-999.0,73,-99.99,,,0.00,weatherlink.com 1.10,2013-05-08 03:57:00,